createdAt,value
2023-04-24T05:06:26.875Z,98779.38
2023-04-24T05:09:30.423Z,98771.75
2023-04-24T05:12:32.905Z,98780.25
2023-04-24T05:15:35.415Z,98775.13
2023-04-24T05:18:37.945Z,98783.25
2023-04-24T05:21:41.773Z,98776.50
2023-04-24T05:24:44.247Z,98780.44
2023-04-24T05:27:47.373Z,98773.41
2023-04-24T05:30:49.879Z,98783.47
2023-04-24T05:33:52.366Z,98779.97
2023-04-24T05:36:56.385Z,98788.97
2023-04-24T05:39:58.866Z,98790.13
2023-04-24T05:43:01.324Z,98796.25
2023-04-24T05:46:03.876Z,98794.19
2023-04-24T05:49:06.878Z,98790.50
2023-04-24T05:52:10.752Z,98800.63
2023-04-24T05:55:13.377Z,98808.63
2023-04-24T05:58:16.550Z,98827.34
2023-04-24T06:01:19.214Z,98850.38
2023-04-24T06:04:22.614Z,98871.84
2023-04-24T06:07:27.340Z,98915.03
2023-04-24T06:10:29.900Z,98976.38
2023-04-24T06:13:32.436Z,99025.69
2023-04-24T06:16:35.183Z,99067.44
2023-04-24T06:19:37.708Z,99103.78
2023-04-24T06:22:42.001Z,99119.22
2023-04-24T06:25:44.567Z,99124.78
2023-04-24T06:28:47.032Z,99141.03
2023-04-24T06:31:49.699Z,99148.66
2023-04-24T06:34:53.180Z,99170.16
2023-04-24T06:37:59.239Z,99162.47
2023-04-24T06:41:01.855Z,99182.53
2023-04-24T06:44:04.322Z,99174.16
2023-04-24T06:47:07.033Z,99184.53
2023-04-24T06:50:10.437Z,99182.88
2023-04-24T06:53:15.384Z,99185.47
2023-04-24T06:56:17.909Z,99184.38
2023-04-24T06:59:20.702Z,99188.78
2023-04-24T07:02:23.273Z,99184.41
2023-04-24T07:05:25.891Z,99179.03
2023-04-24T07:08:31.422Z,99186.38
2023-04-24T07:11:33.912Z,99188.63
2023-04-24T07:14:36.796Z,99193.41
2023-04-24T07:17:43.872Z,99194.84
2023-04-24T07:20:46.551Z,99198.34
2023-04-24T07:23:50.366Z,99200.13
2023-04-24T07:26:53.593Z,99194.53
2023-04-24T07:29:56.109Z,99207.84
2023-04-24T07:32:58.627Z,99202.81
2023-04-24T07:36:01.250Z,99195.34
2023-04-24T07:39:05.156Z,99191.31
2023-04-24T07:42:07.715Z,99188.75
2023-04-24T07:45:10.407Z,99209.53
2023-04-24T07:48:14.721Z,99200.34
2023-04-24T07:51:17.707Z,99201.34
2023-04-24T07:54:21.993Z,99199.50
2023-04-24T07:57:24.490Z,99209.25
2023-04-24T08:00:27.206Z,99207.88
2023-04-24T08:03:29.914Z,99204.94
2023-04-24T08:06:32.936Z,99208.25
2023-04-24T08:09:36.918Z,99208.81
2023-04-24T08:12:39.594Z,99218.38
2023-04-24T08:15:42.229Z,99225.13
2023-04-24T08:18:44.848Z,99219.94
2023-04-24T08:21:47.391Z,99211.06
2023-04-24T08:24:51.246Z,99213.53
2023-04-24T08:27:53.818Z,99205.00
2023-04-24T08:30:56.589Z,99207.22
2023-04-24T08:33:59.593Z,99204.03
2023-04-24T08:37:02.249Z,99207.25
2023-04-24T08:40:13.501Z,99214.53
2023-04-24T08:43:16.688Z,99203.72
2023-04-24T08:46:21.510Z,99202.44
2023-04-24T08:49:26.303Z,99208.72
2023-04-24T08:52:29.511Z,99207.13
2023-04-24T08:55:35.368Z,99207.41
2023-04-24T08:58:38.312Z,99215.81
2023-04-24T09:01:42.392Z,99208.50
2023-04-24T09:04:46.003Z,99210.72
2023-04-24T09:07:56.033Z,99205.53
2023-04-24T09:11:02.947Z,99206.13
2023-04-24T09:14:06.086Z,99205.88
2023-04-24T09:17:08.993Z,99204.16
2023-04-24T09:20:12.190Z,99208.75
2023-04-24T09:23:19.444Z,99210.75
2023-04-24T09:26:23.852Z,99225.28
2023-04-24T09:29:26.449Z,99212.09
2023-04-24T09:32:31.022Z,99228.06
2023-04-24T09:35:34.228Z,99214.19
2023-04-24T09:38:37.911Z,99214.25
2023-04-24T09:41:47.594Z,99210.75
2023-04-24T09:44:58.928Z,99215.38
2023-04-24T09:48:08.875Z,99212.56
2023-04-24T09:51:12.321Z,99217.78
2023-04-24T09:54:19.496Z,99209.91
2023-04-24T09:57:23.550Z,99211.09
2023-04-24T10:00:27.807Z,99209.34
2023-04-24T10:03:32.237Z,99216.03
2023-04-24T10:06:36.133Z,99212.44
2023-04-24T10:09:38.718Z,99223.66
2023-04-24T10:12:43.755Z,99217.09
2023-04-24T10:15:47.690Z,99221.19
2023-04-24T10:18:50.529Z,99215.88
2023-04-24T10:21:53.072Z,99221.19
2023-04-24T10:24:55.838Z,99211.63
2023-04-24T10:28:01.263Z,99221.13
2023-04-24T10:31:04.223Z,99216.25
2023-04-24T10:34:07.826Z,99221.59
2023-04-24T10:37:10.430Z,99220.00
2023-04-24T10:40:17.390Z,99222.19
2023-04-24T10:43:21.505Z,99226.47
2023-04-24T10:46:24.248Z,99228.47
2023-04-24T10:49:30.801Z,99215.91
2023-04-24T10:52:46.084Z,99216.78
2023-04-24T10:55:51.413Z,99224.66
2023-04-24T10:58:55.488Z,99223.66
2023-04-24T11:01:57.983Z,99225.09
2023-04-24T11:05:05.109Z,99219.47
2023-04-24T11:08:15.691Z,99221.03
2023-04-24T11:11:21.816Z,99230.50
2023-04-24T11:14:25.848Z,99224.16
2023-04-24T11:17:32.894Z,99221.47
2023-04-24T11:20:35.652Z,99220.13
2023-04-24T11:23:39.005Z,99214.47
2023-04-24T11:26:43.308Z,99209.28
2023-04-24T11:29:49.476Z,99210.09
2023-04-24T11:32:53.088Z,99206.03
2023-04-24T11:35:55.802Z,99204.22
2023-04-24T11:38:59.378Z,99204.78
2023-04-24T11:42:04.540Z,99196.41
2023-04-24T11:45:12.354Z,99199.72
2023-04-24T11:48:22.675Z,99206.72
2023-04-24T11:51:30.661Z,99203.94
2023-04-24T11:54:36.175Z,99202.94
2023-04-24T11:57:38.869Z,99196.69
2023-04-24T12:00:42.706Z,99198.88
2023-04-24T12:03:50.112Z,99199.41
2023-04-24T12:07:02.229Z,99194.94
2023-04-24T12:10:06.999Z,99200.34
2023-04-24T12:13:11.415Z,99190.69
2023-04-24T12:16:15.430Z,99186.09
2023-04-24T12:19:21.288Z,99190.44
2023-04-24T12:22:23.813Z,99190.88
2023-04-24T12:25:28.625Z,99190.44
2023-04-24T12:28:38.093Z,99191.50
2023-04-24T12:31:42.169Z,99191.44
2023-04-24T12:34:45.608Z,99190.72
2023-04-24T12:37:48.118Z,99192.75
2023-04-24T12:41:04.048Z,99191.66
2023-04-24T12:44:13.164Z,99196.78
2023-04-24T12:47:17.021Z,99188.94
2023-04-24T12:50:19.559Z,99173.22
2023-04-24T12:53:22.043Z,99175.22
2023-04-24T12:56:24.794Z,99176.50
2023-04-24T12:59:27.600Z,99179.16
2023-04-24T13:02:32.502Z,99186.53
2023-04-24T13:05:35.190Z,99186.00
2023-04-24T13:08:37.677Z,99167.53
2023-04-24T13:11:40.761Z,99167.31
2023-04-24T13:14:43.493Z,99173.72
2023-04-24T13:17:47.364Z,99167.00
2023-04-24T13:20:49.976Z,99172.63
2023-04-24T13:23:52.864Z,99162.88
2023-04-24T13:26:55.447Z,99172.66
2023-04-24T13:29:57.924Z,99199.19
2023-04-24T13:33:01.919Z,99212.09
2023-04-24T13:36:04.700Z,99214.78
2023-04-24T13:39:07.942Z,99219.44
2023-04-24T13:42:10.615Z,99222.09
2023-04-24T13:45:23.896Z,99211.88
2023-04-24T13:48:28.811Z,99215.16
2023-04-24T13:51:32.042Z,99210.09
2023-04-24T13:54:34.868Z,99201.19
2023-04-24T13:57:39.200Z,99208.28
2023-04-24T14:00:41.719Z,99194.94
2023-04-24T14:03:45.895Z,99184.59
2023-04-24T14:06:48.600Z,99181.22
2023-04-24T14:09:51.225Z,99165.44
2023-04-24T14:12:54.074Z,99153.88
2023-04-24T14:15:56.664Z,99148.72
2023-04-24T14:19:00.588Z,99154.59
2023-04-24T14:22:03.314Z,99161.28
2023-04-24T14:25:07.259Z,99172.63
2023-04-24T14:28:09.790Z,99170.06
2023-04-24T14:31:12.388Z,99164.19
2023-04-24T14:34:17.097Z,99166.06
2023-04-24T14:37:19.790Z,99170.84
2023-04-24T14:40:52.430Z,99161.25
2023-04-24T14:43:45.024Z,99167.00
2023-04-24T14:46:47.900Z,99172.00
2023-04-24T14:49:51.845Z,99171.50
2023-04-24T14:52:54.356Z,99170.88
2023-04-24T14:55:56.862Z,99164.81
2023-04-24T14:58:59.520Z,99166.00
2023-04-24T15:02:15.075Z,99170.09
2023-04-24T15:05:20.325Z,99168.31
2023-04-24T15:08:22.917Z,99174.53
2023-04-24T15:11:25.460Z,99163.97
2023-04-24T15:14:28.065Z,99169.22
2023-04-24T15:17:30.714Z,99159.25
2023-04-24T15:20:37.997Z,99170.34
2023-04-24T15:23:41.183Z,99162.59
2023-04-24T15:26:43.790Z,99163.72
2023-04-24T15:29:46.343Z,99166.72
2023-04-24T15:32:48.855Z,99163.09
2023-04-24T15:35:52.703Z,99157.38
2023-04-24T15:38:55.285Z,99158.81
2023-04-24T15:41:57.892Z,99170.38
2023-04-24T15:45:00.455Z,99165.16
2023-04-24T15:48:03.178Z,99163.38
2023-04-24T15:51:07.168Z,99163.44
2023-04-24T15:54:09.640Z,99159.41
2023-04-24T15:57:13.318Z,99162.94
2023-04-24T16:00:18.248Z,99165.06
2023-04-24T16:03:21.431Z,99169.78
2023-04-24T16:06:25.464Z,99175.31
2023-04-24T16:09:27.955Z,99174.72
2023-04-24T16:12:30.571Z,99176.25
2023-04-24T16:15:34.561Z,99180.78
2023-04-24T16:18:37.057Z,99185.41
2023-04-24T16:21:41.051Z,99177.25
2023-04-24T16:24:44.650Z,99183.03
2023-04-24T16:27:48.717Z,99187.34
2023-04-24T16:30:51.334Z,99181.59
2023-04-24T16:33:53.990Z,99191.25
2023-04-24T16:36:58.125Z,99189.56
2023-04-24T16:40:00.631Z,99190.09
2023-04-24T16:43:03.143Z,99188.28
2023-04-24T16:46:05.805Z,99189.13
2023-04-24T16:49:08.300Z,99188.16
2023-04-24T16:52:13.145Z,99193.47
2023-04-24T16:55:15.718Z,99197.25
2023-04-24T16:58:18.248Z,99197.81
2023-04-24T17:01:20.826Z,99197.09
2023-04-24T17:04:23.590Z,99198.72
2023-04-24T17:07:27.574Z,99197.59
2023-04-24T17:10:30.073Z,99199.41
2023-04-24T17:13:32.543Z,99210.47
2023-04-24T17:16:35.215Z,99204.34
2023-04-24T17:19:37.916Z,99227.44
2023-04-24T17:22:41.716Z,99235.13
2023-04-24T17:25:44.224Z,99246.47
2023-04-24T17:28:47.056Z,99246.34
2023-04-24T17:31:49.835Z,99248.72
2023-04-24T17:34:52.332Z,99268.22
2023-04-24T17:37:56.904Z,99266.22
2023-04-24T17:41:00.557Z,99267.16
2023-04-24T17:44:03.107Z,99266.72
2023-04-24T17:47:05.752Z,99261.59
2023-04-24T17:50:08.875Z,99274.97
2023-04-24T17:53:13.465Z,99278.94
2023-04-24T17:56:16.027Z,99269.94
2023-04-24T17:59:18.506Z,99284.38
2023-04-24T18:02:21.100Z,99289.66
2023-04-24T18:05:23.685Z,99291.69
2023-04-24T18:08:27.607Z,99290.72
2023-04-24T18:11:30.192Z,99294.19
2023-04-24T18:14:32.711Z,99298.03
2023-04-24T18:17:35.272Z,99301.88
2023-04-24T18:20:37.892Z,99305.81
2023-04-24T18:23:41.706Z,99311.84
2023-04-24T18:26:44.200Z,99310.00
2023-04-24T18:29:46.719Z,99318.16
2023-04-24T18:32:49.619Z,99323.41
2023-04-24T18:35:52.140Z,99324.38
2023-04-24T18:38:55.969Z,99333.41
2023-04-24T18:41:58.850Z,99344.19
2023-04-24T18:45:02.411Z,99347.22
2023-04-24T18:48:05.234Z,99352.16
2023-04-24T18:51:08.824Z,99353.59
2023-04-24T18:54:12.711Z,99362.25
2023-04-24T18:57:15.347Z,99363.44
2023-04-24T19:00:18.963Z,99359.53
2023-04-24T19:03:21.558Z,99370.47
2023-04-24T19:06:24.295Z,99379.78
2023-04-24T19:09:28.136Z,99381.09
2023-04-24T19:12:30.688Z,99376.94
2023-04-24T19:15:33.701Z,99369.53
2023-04-24T19:18:36.249Z,99375.69
2023-04-24T19:21:38.797Z,99391.75
2023-04-24T19:24:42.630Z,99406.88
2023-04-24T19:27:45.198Z,99400.50
2023-04-24T19:30:47.683Z,99408.59
2023-04-24T19:33:50.258Z,99416.72
2023-04-24T19:36:52.837Z,99404.66
2023-04-24T19:59:50.679Z,99429.31
2023-04-24T20:02:53.591Z,99426.78
2023-04-24T20:06:05.304Z,99440.50
2023-04-24T20:09:07.986Z,99437.00
2023-04-24T21:00:56.010Z,99459.78
2023-04-24T21:03:58.627Z,99459.84
2023-04-24T21:07:01.192Z,99443.59
